createdAt,value
2022-08-19T00:02:00.410Z,58.89
2022-08-19T00:04:31.755Z,60.37
2022-08-19T00:07:00.580Z,64.33
2022-08-19T00:09:31.737Z,64.53
2022-08-19T00:12:01.540Z,62.03
2022-08-19T00:14:31.694Z,58.42
2022-08-19T00:17:00.057Z,58.11
2022-08-19T00:19:28.620Z,59.68
2022-08-19T00:21:56.726Z,63.58
2022-08-19T00:24:25.962Z,64.22
2022-08-19T00:26:55.430Z,62.06
2022-08-19T00:29:25.556Z,58.50
2022-08-19T00:31:55.252Z,57.75
2022-08-19T00:34:24.885Z,59.69
2022-08-19T00:36:53.103Z,63.61
2022-08-19T00:39:23.204Z,64.11
2022-08-19T00:41:51.999Z,61.83
2022-08-19T00:44:26.721Z,58.35
2022-08-19T00:46:59.283Z,58.02
2022-08-19T00:49:31.465Z,59.74
2022-08-19T00:52:08.899Z,64.01
2022-08-19T00:54:39.733Z,64.24
2022-08-19T00:57:13.360Z,61.86
2022-08-19T00:59:56.168Z,58.82
2022-08-19T01:02:31.930Z,57.70
2022-08-19T01:05:01.259Z,59.41
2022-08-19T01:07:37.515Z,64.02
2022-08-19T01:10:11.494Z,64.93
2022-08-19T01:12:40.521Z,62.48
2022-08-19T01:15:12.821Z,60.73
2022-08-19T01:17:42.392Z,57.78
2022-08-19T01:20:13.865Z,57.91
2022-08-19T01:22:45.674Z,59.87
2022-08-19T01:25:16.334Z,64.07
2022-08-19T01:27:47.758Z,64.03
2022-08-19T01:30:21.885Z,61.55
2022-08-19T01:32:50.722Z,58.24
2022-08-19T01:35:19.956Z,58.81
2022-08-19T01:37:51.450Z,59.83
2022-08-19T01:40:22.884Z,64.03
2022-08-19T01:42:52.181Z,65.56
2022-08-19T01:45:22.740Z,63.33
2022-08-19T01:48:01.070Z,61.19
2022-08-19T01:50:31.604Z,58.44
2022-08-19T01:53:02.338Z,59.13
2022-08-19T01:55:40.502Z,64.29
2022-08-19T01:58:13.284Z,65.13
2022-08-19T02:00:44.031Z,62.74
2022-08-19T02:03:12.365Z,61.24
2022-08-19T02:05:41.648Z,58.43
2022-08-19T02:08:11.440Z,59.32
2022-08-19T02:10:41.951Z,62.32
2022-08-19T02:13:10.679Z,62.31
2022-08-19T02:15:38.901Z,63.04
2022-08-19T02:18:11.416Z,62.56
2022-08-19T02:20:41.415Z,61.41
2022-08-19T02:23:13.529Z,58.84
2022-08-19T02:25:45.469Z,58.39
2022-08-19T02:28:18.319Z,60.81
2022-08-19T02:30:48.421Z,65.26
2022-08-19T02:33:18.624Z,64.81
2022-08-19T02:35:47.546Z,62.82
2022-08-19T02:38:28.581Z,61.13
2022-08-19T02:40:57.390Z,60.09
2022-08-19T02:43:26.364Z,57.42
2022-08-19T02:45:54.614Z,59.65
2022-08-19T02:48:24.589Z,63.65
2022-08-19T02:50:55.430Z,65.18
2022-08-19T02:53:26.470Z,62.52
2022-08-19T02:55:53.785Z,62.23
2022-08-19T02:58:23.549Z,61.48
2022-08-19T03:00:55.774Z,58.18
2022-08-19T03:03:24.069Z,59.24
2022-08-19T03:05:56.920Z,62.22
2022-08-19T03:08:26.048Z,63.62
2022-08-19T03:10:54.948Z,62.56
2022-08-19T03:13:24.347Z,61.20
2022-08-19T03:15:52.458Z,60.07
2022-08-19T03:18:21.200Z,58.03
2022-08-19T03:20:54.759Z,59.54
2022-08-19T03:23:24.235Z,63.50
2022-08-19T03:25:58.382Z,64.74
2022-08-19T03:28:43.121Z,62.59
2022-08-19T03:31:45.252Z,61.30
2022-08-19T03:34:11.953Z,58.47
2022-08-19T03:36:40.292Z,59.39
2022-08-19T03:39:09.147Z,63.04
2022-08-19T03:41:45.319Z,63.80
2022-08-19T03:44:17.917Z,62.90
2022-08-19T03:46:48.606Z,60.77
2022-08-19T03:49:18.473Z,59.01
2022-08-19T03:51:48.206Z,61.00
2022-08-19T03:54:19.924Z,65.49
2022-08-19T03:56:49.980Z,64.91
2022-08-19T03:59:22.612Z,63.22
2022-08-19T04:01:50.752Z,61.49
2022-08-19T04:04:20.000Z,60.51
2022-08-19T04:06:48.424Z,58.22
2022-08-19T04:09:16.966Z,58.35
2022-08-19T04:11:48.083Z,59.89
2022-08-19T04:14:16.842Z,64.41
2022-08-19T04:16:46.630Z,64.95
2022-08-19T04:19:16.782Z,62.47
2022-08-19T04:21:48.112Z,58.31
2022-08-19T04:24:17.929Z,57.47
2022-08-19T04:26:46.868Z,59.21
2022-08-19T04:29:17.559Z,60.28
2022-08-19T04:31:46.809Z,63.43
2022-08-19T04:34:16.801Z,63.26
2022-08-19T04:36:45.823Z,61.80
2022-08-19T04:39:16.254Z,58.36
2022-08-19T04:42:03.549Z,57.31
2022-08-19T04:44:33.186Z,57.70
2022-08-19T04:47:03.765Z,58.97
2022-08-19T04:49:39.635Z,58.47
2022-08-19T04:52:09.091Z,59.02
2022-08-19T04:54:39.261Z,58.57
2022-08-19T04:57:09.965Z,58.44
2022-08-19T04:59:39.661Z,59.15
2022-08-19T05:02:11.114Z,58.17
2022-08-19T05:04:39.631Z,58.73
2022-08-19T05:07:08.756Z,59.73
2022-08-19T05:09:58.036Z,57.00
2022-08-19T05:12:29.278Z,57.61
2022-08-19T05:14:58.535Z,58.22
2022-08-19T05:17:29.635Z,56.61
2022-08-19T05:20:17.427Z,55.96
2022-08-19T05:22:47.555Z,53.45
2022-08-19T05:25:20.679Z,51.27
2022-08-19T05:27:49.405Z,48.97
2022-08-19T05:30:18.477Z,51.58
2022-08-19T05:32:46.852Z,48.27
2022-08-19T05:35:14.920Z,46.95
2022-08-19T05:37:43.071Z,49.06
2022-08-19T05:40:12.561Z,45.09
2022-08-19T05:42:40.964Z,44.22
2022-08-19T05:45:11.535Z,41.58
2022-08-19T05:47:42.314Z,40.57
2022-08-19T05:50:10.844Z,39.36
2022-08-19T05:52:39.225Z,39.02
2022-08-19T05:55:12.181Z,38.93
2022-08-19T05:57:40.732Z,38.52
2022-08-19T06:00:11.939Z,40.46
2022-08-19T06:02:40.488Z,41.51
2022-08-19T06:05:11.008Z,39.79
2022-08-19T06:07:40.076Z,41.98
2022-08-19T06:10:11.315Z,39.22
2022-08-19T06:12:39.842Z,39.73
2022-08-19T06:15:12.014Z,40.77
2022-08-19T06:17:42.021Z,40.38
2022-08-19T06:20:14.458Z,42.09
2022-08-19T06:22:45.248Z,39.81
2022-08-19T06:25:15.411Z,38.29
2022-08-19T06:28:14.601Z,38.02
2022-08-19T06:30:31.448Z,37.42
2022-08-19T06:32:59.536Z,36.62
2022-08-19T06:35:29.780Z,35.88
2022-08-19T06:37:58.010Z,35.40
2022-08-19T06:40:27.765Z,34.96
2022-08-19T06:42:56.835Z,36.69
2022-08-19T06:45:34.806Z,36.46
2022-08-19T06:48:04.548Z,35.60
2022-08-19T06:50:34.711Z,34.93
2022-08-19T06:53:06.134Z,35.37
2022-08-19T06:55:34.219Z,35.75
2022-08-19T06:58:05.116Z,34.36
2022-08-19T07:00:34.101Z,33.55
2022-08-19T07:03:04.807Z,35.25
2022-08-19T07:05:45.814Z,33.31
2022-08-19T07:08:14.776Z,31.82
2022-08-19T07:10:45.767Z,33.03
2022-08-19T07:13:14.296Z,33.35
2022-08-19T07:15:42.760Z,33.89
2022-08-19T07:18:11.912Z,33.05
2022-08-19T07:20:41.978Z,34.55
2022-08-19T07:23:10.560Z,35.28
2022-08-19T07:25:44.500Z,35.13
2022-08-19T07:28:14.352Z,35.47
2022-08-19T07:30:51.948Z,34.32
2022-08-19T07:33:21.337Z,35.84
2022-08-19T07:35:50.133Z,34.51
2022-08-19T07:38:18.597Z,33.04
2022-08-19T07:40:47.236Z,33.67
2022-08-19T07:43:17.902Z,34.19
2022-08-19T07:45:47.440Z,35.96
2022-08-19T07:48:15.748Z,36.58
2022-08-19T07:50:44.359Z,37.47
2022-08-19T07:53:12.588Z,38.36
2022-08-19T07:55:43.773Z,37.78
2022-08-19T07:58:14.686Z,38.38
2022-08-19T08:00:43.714Z,38.70
2022-08-19T08:03:13.267Z,38.69
2022-08-19T08:06:05.110Z,39.38
2022-08-19T08:08:51.767Z,40.90
2022-08-19T08:11:21.714Z,41.34
2022-08-19T08:14:01.398Z,41.01
2022-08-19T08:16:46.755Z,40.82
2022-08-19T08:19:22.948Z,41.72
2022-08-19T08:21:55.007Z,43.21
2022-08-19T08:24:28.489Z,43.53
2022-08-19T08:26:59.106Z,43.00
2022-08-19T08:29:35.047Z,42.53
2022-08-19T08:32:04.184Z,42.94
2022-08-19T08:34:42.784Z,41.80
2022-08-19T08:37:13.193Z,41.75
2022-08-19T08:39:44.474Z,42.58
2022-08-19T08:42:21.853Z,42.67
2022-08-19T08:47:29.216Z,42.33
2022-08-19T08:50:02.104Z,42.39
2022-08-19T08:52:35.524Z,42.10
2022-08-19T08:55:10.693Z,41.99
2022-08-19T08:57:50.955Z,41.61
2022-08-19T09:00:25.644Z,42.45
2022-08-19T09:02:54.266Z,43.23
2022-08-19T09:05:27.352Z,41.49
2022-08-19T09:08:16.801Z,42.58
2022-08-19T09:10:55.369Z,42.27
2022-08-19T09:13:32.240Z,41.92
2022-08-19T09:16:09.669Z,41.31
2022-08-19T09:18:44.259Z,40.57
2022-08-19T09:21:13.391Z,40.79
2022-08-19T09:23:42.160Z,40.62
2022-08-19T09:26:13.821Z,40.28
2022-08-19T09:28:48.754Z,40.64
2022-08-19T09:31:19.238Z,40.36
2022-08-19T09:33:46.786Z,40.13
2022-08-19T09:36:21.737Z,39.52
2022-08-19T09:39:03.319Z,38.87
2022-08-19T09:41:31.939Z,37.87
2022-08-19T09:44:02.729Z,37.77
2022-08-19T09:46:31.231Z,37.68
2022-08-19T09:49:06.316Z,37.95
2022-08-19T09:51:35.231Z,38.40
2022-08-19T09:54:06.631Z,38.28
2022-08-19T09:56:37.118Z,38.31
2022-08-19T09:59:05.296Z,39.78
2022-08-19T10:01:33.734Z,38.60
2022-08-19T10:04:06.390Z,38.85
2022-08-19T10:06:39.974Z,39.24
2022-08-19T10:09:17.172Z,39.24
2022-08-19T10:11:55.206Z,38.81
2022-08-19T10:14:23.780Z,39.07
2022-08-19T10:16:51.864Z,38.56
2022-08-19T10:19:25.790Z,38.87
2022-08-19T10:22:00.291Z,39.13
2022-08-19T10:24:29.362Z,39.12
2022-08-19T10:26:59.742Z,38.01
2022-08-19T10:29:32.832Z,38.49
2022-08-19T10:32:03.389Z,39.34
2022-08-19T10:34:32.328Z,38.85
2022-08-19T10:37:01.910Z,38.33
2022-08-19T10:39:30.997Z,38.31
2022-08-19T10:41:59.851Z,38.42
2022-08-19T10:44:31.981Z,38.39
2022-08-19T10:47:00.828Z,38.29
2022-08-19T10:49:29.150Z,38.50
2022-08-19T10:52:20.211Z,37.99
2022-08-19T10:55:08.445Z,37.94
2022-08-19T11:00:27.159Z,38.75
2022-08-19T11:02:54.448Z,38.39
2022-08-19T11:05:24.263Z,38.78
2022-08-19T11:07:53.370Z,37.80
2022-08-19T11:10:22.509Z,37.39
2022-08-19T11:12:54.424Z,36.83
2022-08-19T11:15:22.696Z,36.78
2022-08-19T11:17:54.278Z,36.80
2022-08-19T11:20:25.238Z,37.51
2022-08-19T11:22:53.626Z,38.10
2022-08-19T11:25:22.108Z,37.47
2022-08-19T11:27:51.348Z,37.82
2022-08-19T11:30:19.659Z,37.52
2022-08-19T11:32:49.508Z,37.52
2022-08-19T11:35:22.167Z,37.73
2022-08-19T11:37:49.650Z,37.57
2022-08-19T11:40:18.229Z,37.40
2022-08-19T11:42:55.822Z,37.85
2022-08-19T11:45:24.384Z,37.67
2022-08-19T11:47:52.905Z,37.46
2022-08-19T11:50:23.607Z,37.26
2022-08-19T11:52:55.302Z,37.12
2022-08-19T11:55:23.931Z,37.56
2022-08-19T11:57:52.251Z,37.14
2022-08-19T12:00:20.927Z,36.52
2022-08-19T12:02:49.076Z,36.33
2022-08-19T12:05:17.843Z,36.82
2022-08-19T12:07:46.192Z,36.70
2022-08-19T12:10:14.695Z,36.89
2022-08-19T12:12:47.492Z,37.09
2022-08-19T12:15:28.791Z,36.56
2022-08-19T12:18:07.777Z,36.71
2022-08-19T12:20:37.567Z,36.85
2022-08-19T12:23:06.936Z,36.77
2022-08-19T12:25:35.083Z,36.82
2022-08-19T12:28:04.578Z,36.42
2022-08-19T12:30:33.299Z,36.52
2022-08-19T12:33:01.394Z,36.34
2022-08-19T12:35:30.793Z,37.29
2022-08-19T12:38:00.194Z,37.11
2022-08-19T12:40:29.492Z,36.80
2022-08-19T12:42:58.004Z,36.72
2022-08-19T12:45:26.344Z,36.98
2022-08-19T12:47:56.961Z,36.87
2022-08-19T12:50:25.767Z,36.86
2022-08-19T12:52:54.193Z,37.70
2022-08-19T12:55:22.418Z,37.48
2022-08-19T12:57:50.969Z,37.31
2022-08-19T13:00:21.641Z,37.55
2022-08-19T13:02:52.455Z,37.99
2022-08-19T13:05:25.102Z,38.11
2022-08-19T13:07:56.463Z,36.91
2022-08-19T13:10:28.036Z,36.98
2022-08-19T13:12:57.349Z,36.82
2022-08-19T13:15:25.534Z,37.46
2022-08-19T13:17:55.972Z,37.07
2022-08-19T13:20:24.751Z,36.57
2022-08-19T13:22:53.116Z,37.48
2022-08-19T13:25:21.927Z,38.97
2022-08-19T13:27:51.253Z,37.57
2022-08-19T13:30:44.400Z,38.78
2022-08-19T13:33:15.564Z,38.27
2022-08-19T13:35:47.973Z,40.27
2022-08-19T13:38:18.324Z,38.35
2022-08-19T13:40:46.945Z,38.51
2022-08-19T13:43:22.374Z,38.82
2022-08-19T13:45:55.590Z,38.28
2022-08-19T13:48:26.511Z,37.20
2022-08-19T13:50:55.043Z,36.74
2022-08-19T13:53:24.892Z,38.18
2022-08-19T13:55:53.910Z,37.97
2022-08-19T13:58:23.933Z,37.64
2022-08-19T14:00:52.234Z,38.08
2022-08-19T14:03:20.484Z,37.75
2022-08-19T14:05:48.730Z,38.14
2022-08-19T14:08:19.102Z,37.81
2022-08-19T14:10:48.626Z,38.30
2022-08-19T14:13:20.498Z,38.36
2022-08-19T14:15:49.158Z,38.55
2022-08-19T14:18:18.465Z,37.19
2022-08-19T14:20:46.700Z,37.60
2022-08-19T14:23:14.965Z,37.26
2022-08-19T14:25:44.687Z,37.25
2022-08-19T14:28:12.838Z,37.62
2022-08-19T14:30:40.983Z,37.69
2022-08-19T14:33:09.319Z,38.29
2022-08-19T14:35:38.106Z,38.07
2022-08-19T14:38:07.503Z,37.67
2022-08-19T14:40:35.886Z,37.51
2022-08-19T14:43:05.430Z,38.27
2022-08-19T14:45:36.842Z,39.42
2022-08-19T14:48:05.415Z,38.01
2022-08-19T14:50:34.763Z,38.57
2022-08-19T14:53:08.156Z,39.55
2022-08-19T14:55:43.581Z,39.26
2022-08-19T14:58:28.833Z,40.33
2022-08-19T15:01:00.020Z,38.09
2022-08-19T15:03:28.430Z,38.28
2022-08-19T15:05:57.650Z,38.33
2022-08-19T15:08:27.114Z,39.73
2022-08-19T15:10:56.349Z,41.00
2022-08-19T15:13:24.864Z,39.40
2022-08-19T15:15:53.291Z,39.91
2022-08-19T15:18:22.219Z,40.46
2022-08-19T15:20:50.613Z,39.64
2022-08-19T15:23:21.439Z,40.52
2022-08-19T15:25:53.704Z,40.40
2022-08-19T15:28:22.213Z,40.74
2022-08-19T15:30:50.664Z,41.20
2022-08-19T15:33:20.526Z,41.06
2022-08-19T15:35:50.970Z,40.30
2022-08-19T15:38:21.381Z,40.69
2022-08-19T15:40:50.145Z,41.82
2022-08-19T15:43:21.023Z,41.51
2022-08-19T15:45:49.598Z,41.66
2022-08-19T15:48:17.756Z,41.80
2022-08-19T15:50:45.925Z,41.86
2022-08-19T15:53:14.032Z,42.30
2022-08-19T15:55:50.464Z,42.26
2022-08-19T15:58:36.825Z,42.34
2022-08-19T16:01:27.125Z,42.01
2022-08-19T16:04:21.014Z,41.73
2022-08-19T16:06:51.650Z,41.62
2022-08-19T16:09:24.895Z,41.86
2022-08-19T16:12:01.212Z,41.94
2022-08-19T16:14:31.958Z,41.89
2022-08-19T16:17:00.215Z,42.64
2022-08-19T16:19:28.456Z,43.23
2022-08-19T16:21:57.127Z,43.19
2022-08-19T16:24:27.575Z,43.31
2022-08-19T16:26:56.456Z,43.39
2022-08-19T16:29:34.737Z,43.90
2022-08-19T16:32:10.560Z,44.08
2022-08-19T16:34:40.031Z,44.64
2022-08-19T16:37:09.332Z,44.77
2022-08-19T16:39:37.854Z,45.07
2022-08-19T16:42:08.516Z,45.35
2022-08-19T16:44:39.843Z,44.96
2022-08-19T16:47:07.997Z,45.47
2022-08-19T16:49:54.008Z,46.00
2022-08-19T16:52:26.415Z,45.74
2022-08-19T16:54:55.031Z,45.94
2022-08-19T16:57:26.250Z,46.81
2022-08-19T16:59:54.301Z,46.69
2022-08-19T17:02:22.990Z,47.20
2022-08-19T17:04:57.750Z,47.18
2022-08-19T17:07:33.653Z,46.94
2022-08-19T17:10:04.046Z,46.67
2022-08-19T17:12:32.595Z,46.86
2022-08-19T17:15:01.929Z,46.78
2022-08-19T17:17:30.959Z,46.73
2022-08-19T17:20:00.556Z,47.08
2022-08-19T17:22:29.360Z,47.56
2022-08-19T17:24:58.486Z,48.50
2022-08-19T17:27:32.194Z,49.74
2022-08-19T17:30:02.017Z,50.30
2022-08-19T17:32:34.185Z,49.97
2022-08-19T17:35:03.873Z,49.85
2022-08-19T17:37:33.496Z,50.36
2022-08-19T17:40:03.803Z,50.98
2022-08-19T17:42:32.275Z,52.11
2022-08-19T17:45:02.911Z,53.83
2022-08-19T17:47:31.141Z,53.34
2022-08-19T17:49:59.570Z,52.89
2022-08-19T17:52:28.002Z,53.67
2022-08-19T17:54:56.169Z,54.83
2022-08-19T17:57:24.442Z,54.89
2022-08-19T17:59:53.209Z,54.33
2022-08-19T18:02:22.398Z,54.09
2022-08-19T18:04:50.711Z,53.92
2022-08-19T18:07:20.806Z,53.75
2022-08-19T18:09:51.834Z,54.12
2022-08-19T18:12:25.834Z,54.72
2022-08-19T18:14:54.120Z,54.71
2022-08-19T18:17:22.624Z,55.90
2022-08-19T18:19:50.888Z,56.46
2022-08-19T18:22:26.101Z,57.50
2022-08-19T18:24:55.032Z,57.03
2022-08-19T18:27:23.268Z,56.17
2022-08-19T18:29:51.635Z,56.28
2022-08-19T18:32:23.919Z,56.68
2022-08-19T18:34:55.466Z,57.09
2022-08-19T18:37:25.588Z,57.73
2022-08-19T18:40:11.867Z,58.15
2022-08-19T18:43:01.883Z,58.14
2022-08-19T18:45:48.736Z,58.94
2022-08-19T18:48:34.983Z,58.85
2022-08-19T18:51:04.169Z,58.99
2022-08-19T18:53:34.458Z,59.79
2022-08-19T18:56:02.976Z,60.21
2022-08-19T18:58:33.489Z,65.88
2022-08-19T19:01:10.486Z,66.73
2022-08-19T19:03:44.584Z,65.18
2022-08-19T19:06:14.808Z,63.67
2022-08-19T19:08:44.789Z,60.17
2022-08-19T19:11:16.871Z,60.81
2022-08-19T19:13:46.339Z,62.72
2022-08-19T19:16:14.902Z,65.16
2022-08-19T19:18:43.942Z,62.56
2022-08-19T19:21:12.842Z,61.88
2022-08-19T19:23:41.724Z,58.85
2022-08-19T19:26:11.859Z,58.29
2022-08-19T19:28:44.874Z,60.48
2022-08-19T19:31:15.666Z,64.54
2022-08-19T19:33:44.859Z,66.42
2022-08-19T19:36:13.315Z,64.05
2022-08-19T19:38:48.260Z,62.78
2022-08-19T19:41:23.821Z,60.76
2022-08-19T19:44:23.086Z,57.29
2022-08-19T19:46:44.713Z,60.88
2022-08-19T19:49:13.559Z,66.34
2022-08-19T19:51:42.029Z,66.65
2022-08-19T19:54:23.044Z,64.60
2022-08-19T19:56:54.956Z,63.62
2022-08-19T19:59:23.374Z,62.53
2022-08-19T20:01:54.554Z,61.83
2022-08-19T20:04:23.056Z,61.18
2022-08-19T20:06:51.385Z,60.58
2022-08-19T20:09:20.093Z,58.94
2022-08-19T20:11:54.563Z,59.08
2022-08-19T20:14:25.426Z,61.31
2022-08-19T20:16:55.809Z,66.41
2022-08-19T20:19:32.105Z,66.21
2022-08-19T20:22:01.482Z,63.49
2022-08-19T20:24:34.582Z,61.65
2022-08-19T20:27:05.450Z,60.99
2022-08-19T20:29:38.027Z,58.92
2022-08-19T20:32:08.258Z,59.60
2022-08-19T20:34:36.682Z,61.04
2022-08-19T20:37:05.305Z,64.09
2022-08-19T20:39:33.553Z,65.28
2022-08-19T20:42:01.798Z,63.75
2022-08-19T20:44:29.952Z,62.24
2022-08-19T20:47:02.925Z,61.74
2022-08-19T20:49:32.446Z,58.84
2022-08-19T20:52:01.032Z,59.23
2022-08-19T20:54:29.243Z,63.36
2022-08-19T20:56:57.702Z,64.65
2022-08-19T20:59:26.373Z,63.25
2022-08-19T21:01:54.875Z,61.84
2022-08-19T21:04:22.970Z,60.66
2022-08-19T21:06:52.447Z,58.32
2022-08-19T21:09:20.950Z,58.63
2022-08-19T21:11:49.267Z,60.25
2022-08-19T21:14:21.045Z,64.53
2022-08-19T21:16:49.788Z,64.62
2022-08-19T21:19:22.041Z,62.82
2022-08-19T21:21:52.354Z,61.68
2022-08-19T21:24:21.019Z,61.23
2022-08-19T21:26:51.471Z,58.61
2022-08-19T21:29:20.095Z,58.52
2022-08-19T21:31:49.224Z,61.24
2022-08-19T21:34:17.975Z,64.99
2022-08-19T21:36:46.445Z,64.92
2022-08-19T21:39:14.689Z,62.69
2022-08-19T21:41:43.728Z,62.38
2022-08-19T21:44:12.258Z,61.59
2022-08-19T21:46:40.583Z,60.90
2022-08-19T21:49:08.788Z,58.42
2022-08-19T21:51:37.677Z,59.32
2022-08-19T21:54:05.983Z,63.32
2022-08-19T21:56:34.391Z,64.24
2022-08-19T21:59:02.568Z,63.01
2022-08-19T22:01:31.167Z,61.48
2022-08-19T22:03:59.452Z,60.72
2022-08-19T22:06:27.789Z,60.28
2022-08-19T22:08:56.573Z,58.65
2022-08-19T22:11:26.040Z,59.48
2022-08-19T22:13:56.036Z,63.31
2022-08-19T22:16:25.870Z,63.89
2022-08-19T22:18:54.027Z,62.20
2022-08-19T22:21:40.529Z,61.16
2022-08-19T22:24:10.029Z,60.79
2022-08-19T22:26:39.545Z,58.87
2022-08-19T22:29:07.773Z,59.59
2022-08-19T22:31:37.161Z,63.24
2022-08-19T22:34:06.136Z,65.32
2022-08-19T22:36:35.179Z,64.09
2022-08-19T22:39:04.708Z,63.12
2022-08-19T22:41:33.664Z,62.16
2022-08-19T22:44:03.389Z,61.35
2022-08-19T22:46:33.554Z,61.28
2022-08-19T22:49:02.179Z,60.73
2022-08-19T22:51:49.094Z,60.33
2022-08-19T22:54:17.599Z,58.31
2022-08-19T22:56:46.885Z,59.09
2022-08-19T22:59:15.080Z,64.38
2022-08-19T23:01:43.566Z,63.37
2022-08-19T23:04:13.547Z,63.72
2022-08-19T23:06:42.483Z,61.68
2022-08-19T23:09:11.200Z,62.10
2022-08-19T23:11:46.565Z,61.85
2022-08-19T23:14:16.903Z,61.33
2022-08-19T23:16:51.253Z,60.64
2022-08-19T23:19:21.205Z,58.97
2022-08-19T23:21:52.293Z,60.30
2022-08-19T23:24:20.889Z,65.05
2022-08-19T23:27:07.483Z,63.54
2022-08-19T23:29:54.465Z,63.74
2022-08-19T23:32:24.820Z,63.50
2022-08-19T23:34:55.464Z,64.52
2022-08-19T23:37:25.808Z,65.29
2022-08-19T23:39:53.930Z,64.73
2022-08-19T23:42:25.322Z,62.18
2022-08-19T23:44:53.400Z,63.29
2022-08-19T23:47:22.647Z,61.57
2022-08-19T23:49:50.853Z,62.39
2022-08-19T23:52:19.837Z,63.83
2022-08-19T23:54:48.001Z,63.49
2022-08-19T23:57:16.183Z,63.08
2022-08-19T23:59:44.894Z,62.28
